Time;durP1;ratioP1;P1;durP2;ratioP2;P2;SDS_P1;SDS_P2;PMS_P1;PMS_P2;Temp;Humidity;BMP_temperature;BMP_pressure;BME280_temperature;BME280_humidity;BME280_pressure;Samples;Min_cycle;Max_cycle;Signal;HPM_P1;HPM_P2
2021/10/25 00:00:20;;;;;;;6.75;3.97;;;;;;;5.98;55.33;95133.19;4966527;28;20030;-75
2021/10/25 00:02:45;;;;;;;7.90;4.43;;;;;;;6.15;55.48;95131.25;4963579;28;20038;-75
2021/10/25 00:05:11;;;;;;;8.20;4.40;;;;;;;6.30;55.92;95110.25;4967374;28;20095;-75
2021/10/25 00:07:36;;;;;;;5.93;4.22;;;;;;;6.66;54.54;95098.00;4963212;28;20568;-75
2021/10/25 00:10:02;;;;;;;6.63;4.93;;;;;;;6.61;54.99;95116.50;4966634;28;20226;-76
2021/10/25 00:12:28;;;;;;;7.22;4.18;;;;;;;6.72;54.45;95120.00;4968339;28;20030;-75
2021/10/25 00:14:54;;;;;;;8.95;4.70;;;;;;;6.01;55.65;95087.81;4955339;28;20035;-75
2021/10/25 00:17:19;;;;;;;6.05;4.43;;;;;;;6.47;55.32;95115.34;4966872;28;20522;-75
2021/10/25 00:19:44;;;;;;;8.95;4.80;;;;;;;6.92;54.11;95112.16;4966992;28;20034;-75
2021/10/25 00:22:10;;;;;;;7.25;3.97;;;;;;;7.23;53.37;95113.88;4960853;28;20038;-76
2021/10/25 00:24:35;;;;;;;5.47;3.88;;;;;;;7.53;52.21;95118.41;4966043;28;20524;-75
2021/10/25 00:27:01;;;;;;;5.43;4.18;;;;;;;7.80;51.54;95123.53;4965015;28;20085;-76
2021/10/25 00:29:26;;;;;;;4.45;3.47;;;;;;;7.99;50.75;95123.81;4968490;28;20528;-75
2021/10/25 00:31:52;;;;;;;15.73;6.88;;;;;;;8.04;50.36;95107.91;4954293;28;20075;-75
2021/10/25 00:34:17;;;;;;;8.80;5.40;;;;;;;8.25;49.68;95106.06;4968734;28;20122;-75
2021/10/25 00:36:43;;;;;;;6.10;4.32;;;;;;;8.37;49.77;95117.97;4966736;28;20117;-75
2021/10/25 00:39:09;;;;;;;4.72;4.10;;;;;;;8.28;49.57;95105.50;4962177;28;20030;-75
2021/10/25 00:41:35;;;;;;;5.43;4.35;;;;;;;8.17;49.43;95114.56;4967735;28;20125;-75
2021/10/25 00:44:00;;;;;;;6.10;3.40;;;;;;;8.19;49.35;95120.38;4970369;28;20050;-75
2021/10/25 00:46:26;;;;;;;4.88;3.55;;;;;;;8.10;49.54;95107.66;4966843;28;20043;-75
2021/10/25 00:48:51;;;;;;;7.68;3.70;;;;;;;7.84;49.89;95123.78;4964045;28;20038;-75
2021/10/25 00:51:16;;;;;;;9.02;5.47;;;;;;;7.75;50.25;95117.44;4968984;28;20040;-76
2021/10/25 00:53:43;;;;;;;13.40;7.80;;;;;;;8.03;49.74;95123.00;4964319;28;20863;-75
2021/10/25 00:56:09;;;;;;;11.77;6.18;;;;;;;8.06;50.03;95127.00;4966877;28;20054;-75
2021/10/25 00:58:35;;;;;;;8.75;5.68;;;;;;;7.98;50.35;95111.63;4965354;28;20034;-75
2021/10/25 01:01:01;;;;;;;5.93;4.10;;;;;;;8.11;50.12;95111.91;4968131;28;20045;-75
2021/10/25 01:03:28;;;;;;;10.57;4.68;;;;;;;7.83;50.62;95106.31;4964453;28;20032;-75
2021/10/25 01:05:55;;;;;;;7.75;4.53;;;;;;;7.95;50.71;95104.19;4961962;28;20042;-75
2021/10/25 01:08:22;;;;;;;6.90;4.57;;;;;;;8.07;50.36;95125.94;4966743;28;20035;-75
2021/10/25 01:10:47;;;;;;;8.43;4.63;;;;;;;7.58;51.86;95115.78;4982067;28;20070;-75
2021/10/25 01:13:14;;;;;;;7.82;4.65;;;;;;;7.52;52.15;95116.06;4961614;28;20056;-75
2021/10/25 01:15:40;;;;;;;8.63;4.95;;;;;;;7.36;52.27;95111.78;4965162;28;21158;-75
2021/10/25 01:18:06;;;;;;;7.50;4.93;;;;;;;6.58;54.10;95119.66;4978401;28;20037;-75
2021/10/25 01:20:31;;;;;;;5.55;4.43;;;;;;;6.63;53.78;95087.16;4968485;28;20068;-75
2021/10/25 01:22:58;;;;;;;6.28;4.65;;;;;;;6.30;55.17;95104.97;4965020;28;20042;-75
2021/10/25 01:25:24;;;;;;;7.40;4.95;;;;;;;6.11;56.00;95110.88;4964778;28;20043;-75
2021/10/25 01:27:51;;;;;;;6.13;4.95;;;;;;;5.91;57.06;95122.88;4959879;28;20065;-75
2021/10/25 01:30:17;;;;;;;7.38;4.65;;;;;;;6.12;55.94;95086.03;4965198;28;20441;-74
2021/10/25 01:32:43;;;;;;;9.00;5.07;;;;;;;6.22;56.02;95101.97;4965670;28;20038;-75
2021/10/25 01:35:09;;;;;;;7.60;4.40;;;;;;;6.05;56.08;95106.59;4962917;28;20121;-74
2021/10/25 01:37:34;;;;;;;7.32;5.03;;;;;;;6.15;56.60;95111.94;4962150;28;20517;-75
2021/10/25 01:40:00;;;;;;;6.13;4.78;;;;;;;6.52;56.06;95111.94;4965927;28;20480;-75
2021/10/25 01:42:26;;;;;;;7.18;5.03;;;;;;;6.47;55.96;95115.34;4965015;28;20049;-75
2021/10/25 01:44:51;;;;;;;7.97;5.38;;;;;;;6.48;55.15;95090.53;4960890;28;20044;-75
2021/10/25 01:47:16;;;;;;;6.32;4.80;;;;;;;6.02;56.86;95098.09;4964703;28;20042;-75
2021/10/25 01:49:43;;;;;;;7.60;4.68;;;;;;;6.19;56.78;95102.50;4965784;28;20046;-75
2021/10/25 01:52:09;;;;;;;7.55;4.93;;;;;;;6.09;56.78;95112.94;4963637;28;20035;-75
2021/10/25 01:54:35;;;;;;;7.43;5.55;;;;;;;6.10;56.83;95114.56;4966077;28;20689;-75
2021/10/25 01:57:00;;;;;;;8.90;6.20;;;;;;;5.73;57.37;95104.75;4965679;28;20513;-74
2021/10/25 01:59:26;;;;;;;10.60;6.45;;;;;;;5.77;57.58;95107.69;4964530;28;20038;-75
2021/10/25 02:01:51;;;;;;;10.68;4.85;;;;;;;5.84;57.30;95106.44;4963713;28;20038;-75
2021/10/25 02:04:17;;;;;;;6.03;5.40;;;;;;;6.12;56.28;95101.88;4971636;28;20101;-75
2021/10/25 02:06:42;;;;;;;6.00;4.70;;;;;;;6.36;55.60;95088.06;4967249;28;20064;-75
2021/10/25 02:09:08;;;;;;;7.90;5.60;;;;;;;6.43;54.46;95096.56;4962358;28;20034;-75
2021/10/25 02:11:34;;;;;;;7.57;4.75;;;;;;;6.31;55.36;95108.41;4965399;28;20579;-75
2021/10/25 02:13:59;;;;;;;7.97;4.93;;;;;;;6.17;55.15;95099.28;4966702;28;20043;-76
2021/10/25 02:16:25;;;;;;;7.57;4.43;;;;;;;6.11;55.29;95087.09;4962391;28;20054;-75
2021/10/25 02:18:52;;;;;;;6.30;3.92;;;;;;;6.65;53.96;95106.97;4963594;28;20073;-73
2021/10/25 02:21:18;;;;;;;6.28;4.78;;;;;;;5.93;55.38;95115.47;4966598;28;20034;-74
2021/10/25 02:23:43;;;;;;;7.50;4.55;;;;;;;5.89;54.90;95103.81;4963551;28;20591;-74
2021/10/25 02:26:09;;;;;;;11.65;6.82;;;;;;;5.13;57.60;95111.03;4964605;28;20505;-74
2021/10/25 02:28:35;;;;;;;7.05;5.20;;;;;;;5.01;58.41;95086.63;4966714;28;20050;-74
2021/10/25 02:31:01;;;;;;;8.75;5.47;;;;;;;5.24;58.52;95104.00;4965063;28;20054;-73
2021/10/25 02:33:26;;;;;;;16.55;5.68;;;;;;;5.39;58.69;95108.63;4964032;28;20022;-74
2021/10/25 02:35:52;;;;;;;7.78;5.45;;;;;;;5.89;57.33;95105.66;4963216;28;20418;-73
2021/10/25 02:38:18;;;;;;;8.75;6.13;;;;;;;5.51;57.61;95111.94;4970254;28;20665;-73
2021/10/25 02:40:44;;;;;;;7.57;5.47;;;;;;;5.13;59.32;95111.03;4963512;28;20176;-73
2021/10/25 02:43:09;;;;;;;9.05;4.90;;;;;;;5.43;58.83;95104.47;4963888;28;20062;-76
2021/10/25 02:45:35;;;;;;;14.73;5.78;;;;;;;5.97;58.08;95121.84;4967137;28;20432;-74
2021/10/25 02:48:02;;;;;;;11.98;6.15;;;;;;;6.48;56.25;95118.78;4965983;28;20038;-73
2021/10/25 02:50:27;;;;;;;8.40;5.78;;;;;;;6.53;55.25;95095.03;4967478;28;20058;-74
2021/10/25 02:52:54;;;;;;;11.52;6.40;;;;;;;6.79;55.12;95113.44;4970246;28;20728;-73
2021/10/25 02:55:19;;;;;;;6.43;5.57;;;;;;;6.76;54.30;95081.41;4963945;28;20386;-74
2021/10/25 02:57:45;;;;;;;13.88;5.45;;;;;;;6.63;53.86;95050.94;4966343;28;20054;-74
2021/10/25 03:00:14;;;;;;;6.13;4.93;;;;;;;7.03;53.42;95110.34;4964904;28;20611;-74
2021/10/25 03:02:42;;;;;;;9.23;4.97;;;;;;;6.92;53.68;95096.28;4963772;28;20040;-74
2021/10/25 03:05:07;;;;;;;17.30;7.32;;;;;;;6.76;54.20;95098.06;4961827;28;20038;-74
2021/10/25 03:07:33;;;;;;;18.25;8.75;;;;;;;6.61;54.59;95097.97;4959618;28;20598;-73
2021/10/25 03:09:59;;;;;;;23.95;10.10;;;;;;;6.48;54.98;95101.09;4961373;28;20046;-74
2021/10/25 03:12:26;;;;;;;15.60;8.32;;;;;;;6.19;54.93;95057.59;4963607;28;20081;-74
2021/10/25 03:14:52;;;;;;;19.20;8.57;;;;;;;6.26;55.02;95089.88;4962472;28;20043;-74
2021/10/25 03:17:17;;;;;;;26.77;9.73;;;;;;;6.28;55.36;95095.69;4964333;28;20074;-74
2021/10/25 03:19:44;;;;;;;18.27;6.75;;;;;;;6.24;55.34;95082.19;4962919;28;20129;-74
2021/10/25 03:22:11;;;;;;;11.73;6.75;;;;;;;6.26;55.48;95089.88;4965763;28;20031;-74
2021/10/25 03:24:37;;;;;;;8.90;5.38;;;;;;;6.33;55.21;95093.88;4965841;28;20022;-74
2021/10/25 03:27:03;;;;;;;8.90;5.47;;;;;;;6.02;55.74;95101.81;4967337;28;20034;-73
2021/10/25 03:29:28;;;;;;;12.65;6.57;;;;;;;5.94;55.72;95088.03;4958895;28;20456;-74
2021/10/25 03:31:54;;;;;;;27.60;10.43;;;;;;;5.75;56.72;95107.13;4957527;28;20031;-74
2021/10/25 03:34:19;;;;;;;16.73;8.95;;;;;;;5.76;56.03;95095.53;4962769;28;20527;-74
2021/10/25 03:36:48;;;;;;;19.45;8.63;;;;;;;5.56;56.58;95072.41;4958572;28;20033;-74
2021/10/25 03:39:14;;;;;;;30.05;12.68;;;;;;;5.81;56.35;95106.13;4959821;28;20037;-75
2021/10/25 03:41:44;;;;;;;34.15;12.15;;;;;;;5.71;55.92;95075.16;4966531;28;20493;-75
2021/10/25 03:44:18;;;;;;;13.05;7.32;;;;;;;5.76;55.80;95088.41;4963966;28;20056;-75
2021/10/25 03:49:21;;;;;;;7.60;4.78;;;;;;;5.91;55.63;95099.09;4964769;28;20046;-75
2021/10/25 03:51:46;;;;;;;8.10;4.63;;;;;;;5.93;55.46;95083.78;4969231;28;20132;-75
2021/10/25 03:54:27;;;;;;;4.38;3.92;;;;;;;6.07;55.12;95088.66;4964700;28;20457;-76
2021/10/25 04:26:51;;;;;;;7.57;4.55;;;;;;;6.40;53.32;95098.94;4962044;28;20069;-75
2021/10/25 04:29:20;;;;;;;8.13;4.28;;;;;;;6.21;53.90;95084.56;4963144;28;20050;-74
2021/10/25 04:31:46;;;;;;;6.28;4.20;;;;;;;6.15;54.17;95067.03;4961326;28;21048;-76
2021/10/25 04:34:11;;;;;;;8.00;4.68;;;;;;;6.14;54.16;95068.09;4965048;28;20067;-75
2021/10/25 04:36:38;;;;;;;5.57;4.15;;;;;;;6.28;54.04;95090.41;4962099;28;20069;-74
2021/10/25 04:39:09;;;;;;;7.20;4.18;;;;;;;6.24;54.14;95084.03;4967408;28;20062;-74
2021/10/25 04:41:34;;;;;;;7.55;4.20;;;;;;;6.28;54.37;95093.84;4961597;28;20573;-75
2021/10/25 04:43:59;;;;;;;5.70;4.38;;;;;;;6.30;53.78;95083.03;4962053;28;20046;-75
2021/10/25 04:46:25;;;;;;;8.55;4.47;;;;;;;6.34;53.85;95076.16;4960169;28;20398;-75
2021/10/25 04:48:50;;;;;;;10.70;5.00;;;;;;;6.19;54.45;95076.06;4968055;28;20027;-75
2021/10/25 04:51:15;;;;;;;8.00;5.22;;;;;;;6.21;54.98;95095.13;4968121;28;20038;-75
2021/10/25 04:53:41;;;;;;;7.88;4.35;;;;;;;6.17;55.24;95091.38;4958342;28;20466;-74
2021/10/25 04:56:06;;;;;;;7.82;5.68;;;;;;;6.29;55.09;95086.72;4962644;28;20913;-75
2021/10/25 04:58:32;;;;;;;13.93;6.38;;;;;;;6.22;55.33;95083.47;4963555;28;20038;-75
2021/10/25 05:00:57;;;;;;;8.68;5.63;;;;;;;5.94;56.41;95095.94;4963872;28;20042;-74
2021/10/25 05:03:23;;;;;;;10.68;6.22;;;;;;;6.06;57.00;95097.63;4955847;28;20033;-75
2021/10/25 05:05:50;;;;;;;15.38;8.23;;;;;;;5.95;56.90;95086.19;4970042;28;20034;-75
2021/10/25 05:08:16;;;;;;;13.77;6.03;;;;;;;6.05;56.87;95109.22;4981084;28;20512;-75
2021/10/25 05:10:43;;;;;;;10.35;5.47;;;;;;;5.90;56.96;95096.72;4963287;28;20481;-74
2021/10/25 05:13:09;;;;;;;13.23;6.22;;;;;;;5.93;57.28;95102.28;4970455;28;20105;-75
2021/10/25 05:15:35;;;;;;;10.45;6.00;;;;;;;5.89;57.64;95118.88;4962680;28;20050;-75
2021/10/25 05:18:00;;;;;;;10.82;7.00;;;;;;;5.79;57.87;95109.03;4962698;28;20592;-75
2021/10/25 05:20:26;;;;;;;9.07;5.95;;;;;;;5.86;58.12;95114.09;4964435;28;20097;-75
2021/10/25 05:22:51;;;;;;;7.32;5.35;;;;;;;5.36;59.62;95088.03;4963718;28;20140;-74
2021/10/25 05:25:17;;;;;;;9.10;5.82;;;;;;;5.90;58.99;95118.63;4960797;28;20541;-75
2021/10/25 05:27:42;;;;;;;6.50;5.90;;;;;;;6.00;58.28;95094.94;4963080;28;20646;-75
2021/10/25 05:30:08;;;;;;;12.30;6.28;;;;;;;6.22;57.72;95107.25;4971380;28;20053;-75
2021/10/25 05:32:33;;;;;;;7.72;5.63;;;;;;;5.92;57.61;95119.16;4959969;28;20046;-74
2021/10/25 05:35:03;;;;;;;5.82;4.97;;;;;;;5.90;58.03;95129.19;4962648;28;20045;-75
2021/10/25 05:37:29;;;;;;;14.80;6.55;;;;;;;6.20;57.77;95139.22;4961989;28;20541;-76
2021/10/25 05:39:56;;;;;;;12.35;6.28;;;;;;;6.45;56.51;95143.91;4963273;28;20076;-75
2021/10/25 05:42:22;;;;;;;11.63;6.25;;;;;;;6.42;55.87;95149.69;4966089;28;20449;-76
2021/10/25 05:44:47;;;;;;;8.82;5.15;;;;;;;6.42;55.62;95149.69;4961967;28;20038;-75
2021/10/25 05:47:13;;;;;;;11.48;6.22;;;;;;;6.33;55.06;95132.72;4963845;28;20060;-75
2021/10/25 05:49:39;;;;;;;10.05;5.90;;;;;;;6.22;56.06;95163.53;4966721;28;20060;-75
2021/10/25 05:52:04;;;;;;;7.50;4.97;;;;;;;6.34;55.63;95164.16;4956491;28;20576;-75
2021/10/25 05:54:31;;;;;;;6.63;4.88;;;;;;;6.15;56.27;95162.13;4965782;28;20042;-75
2021/10/25 05:56:56;;;;;;;10.23;6.15;;;;;;;6.08;56.62;95148.34;4961812;28;20043;-75
2021/10/25 05:59:25;;;;;;;10.13;5.57;;;;;;;6.02;57.64;95170.50;4969756;28;20030;-75
2021/10/25 06:02:11;;;;;;;10.02;5.45;;;;;;;5.93;56.93;95133.16;4961895;28;20476;-75
2021/10/25 06:04:36;;;;;;;9.45;5.97;;;;;;;6.13;58.76;95177.44;4964102;28;20050;-75
2021/10/25 06:07:05;;;;;;;9.07;6.40;;;;;;;5.89;59.56;95158.47;4963646;28;20838;-76
2021/10/25 06:09:34;;;;;;;9.15;5.45;;;;;;;5.37;61.88;95160.88;4963439;28;20035;-75
2021/10/25 06:12:02;;;;;;;6.47;5.25;;;;;;;5.14;63.51;95175.91;4966587;28;20395;-75
2021/10/25 06:14:32;;;;;;;7.78;5.88;;;;;;;5.24;64.21;95169.16;4964093;28;20337;-75
2021/10/25 06:16:59;;;;;;;9.38;5.78;;;;;;;4.91;65.30;95172.72;4963599;28;20213;-76
2021/10/25 06:19:25;;;;;;;9.82;6.22;;;;;;;4.63;66.23;95174.47;4966861;28;20042;-75
2021/10/25 06:21:51;;;;;;;11.93;6.20;;;;;;;4.65;67.45;95187.38;4964718;28;20375;-75
2021/10/25 06:24:16;;;;;;;15.60;7.82;;;;;;;4.75;67.42;95182.25;4964306;28;20015;-76
2021/10/25 06:26:42;;;;;;;12.98;6.43;;;;;;;4.80;66.98;95184.94;4963996;28;20414;-75
2021/10/25 06:29:08;;;;;;;10.60;5.82;;;;;;;5.13;66.07;95198.06;4966045;28;20071;-75
2021/10/25 06:31:33;;;;;;;13.25;6.90;;;;;;;4.90;66.90;95200.09;4963855;28;20039;-75
2021/10/25 06:34:03;;;;;;;10.27;7.18;;;;;;;4.68;67.62;95195.63;4957818;28;20452;-73
2021/10/25 06:36:33;;;;;;;13.18;7.13;;;;;;;4.74;67.33;95193.84;4961321;28;20552;-73
2021/10/25 06:39:10;;;;;;;11.18;7.00;;;;;;;4.79;66.97;95193.13;4964793;28;20080;-73
2021/10/25 06:41:35;;;;;;;10.05;6.95;;;;;;;4.87;67.08;95190.84;4964411;28;20034;-75
2021/10/25 06:44:01;;;;;;;7.60;5.60;;;;;;;4.99;65.99;95161.75;4963491;28;20057;-74
2021/10/25 06:46:27;;;;;;;10.50;6.53;;;;;;;5.01;66.72;95204.47;4963133;28;20154;-75
2021/10/25 06:48:52;;;;;;;11.50;6.57;;;;;;;4.60;66.86;95192.59;4972536;28;20027;-75
2021/10/25 06:51:18;;;;;;;9.45;6.25;;;;;;;5.00;66.12;95205.50;4965112;28;20113;-73
2021/10/25 06:53:46;;;;;;;17.40;8.40;;;;;;;4.82;66.55;95205.81;4965805;28;20035;-73
2021/10/25 06:56:11;;;;;;;10.88;5.82;;;;;;;4.81;66.56;95193.66;4976999;28;20072;-74
2021/10/25 06:58:36;;;;;;;10.25;6.47;;;;;;;4.94;66.21;95217.06;4962664;28;20527;-73
2021/10/25 07:01:03;;;;;;;7.47;5.70;;;;;;;5.00;65.70;95206.31;4961719;28;20046;-74
2021/10/25 07:03:29;;;;;;;13.32;7.72;;;;;;;4.72;65.75;95172.19;4961775;28;20027;-74
2021/10/25 07:05:59;;;;;;;9.45;5.80;;;;;;;4.79;66.04;95187.84;4968669;28;20049;-74
2021/10/25 07:08:27;;;;;;;11.85;5.97;;;;;;;4.93;64.82;95194.38;4986899;28;20045;-74
2021/10/25 07:10:54;;;;;;;8.30;6.45;;;;;;;4.79;64.71;95188.66;4951671;28;20090;-73
2021/10/25 07:13:20;;;;;;;10.13;6.32;;;;;;;4.78;64.33;95181.78;4956286;28;20153;-74
2021/10/25 07:15:49;;;;;;;12.88;7.05;;;;;;;5.06;64.11;95194.00;4957674;28;20051;-74
2021/10/25 07:18:22;;;;;;;10.45;6.70;;;;;;;5.06;62.65;95188.72;4969929;28;20136;-73
2021/10/25 07:21:05;;;;;;;10.75;5.82;;;;;;;5.18;62.09;95173.59;4968030;28;20567;-74
2021/10/25 08:11:52;;;;;;;8.43;5.57;;;;;;;5.69;55.98;95179.41;4958520;28;20158;-74
2021/10/25 08:14:18;;;;;;;6.13;4.22;;;;;;;5.56;56.06;95177.97;4965154;28;20066;-74
2021/10/25 08:19:23;;;;;;;11.50;4.45;;;;;;;5.78;54.58;95176.06;4964076;28;20113;-74
2021/10/25 08:21:54;;;;;;;10.18;4.85;;;;;;;5.65;55.31;95180.94;4965110;28;20063;-74
2021/10/25 08:24:22;;;;;;;7.28;4.53;;;;;;;5.85;54.81;95154.75;4966037;28;20071;-74
2021/10/25 08:26:47;;;;;;;8.45;4.55;;;;;;;5.73;54.32;95178.66;4965454;28;20038;-75
2021/10/25 08:29:15;;;;;;;6.78;4.50;;;;;;;5.64;53.52;95172.22;4964830;28;20206;-75
2021/10/25 08:31:43;;;;;;;5.63;4.78;;;;;;;5.96;53.73;95178.38;4963474;28;20599;-75
2021/10/25 08:39:49;;;;;;;9.63;4.43;;;;;;;6.06;52.11;95182.16;4970680;28;20042;-75
2021/10/25 08:42:19;;;;;;;7.93;5.00;;;;;;;5.77;51.77;95179.78;4964539;28;20472;-75
2021/10/25 08:44:46;;;;;;;5.65;4.03;;;;;;;5.91;52.25;95173.03;4966469;28;20046;-75
2021/10/25 08:47:20;;;;;;;4.72;3.88;;;;;;;6.17;51.60;95178.53;4964410;28;20042;-75
2021/10/25 08:49:45;;;;;;;6.82;4.30;;;;;;;6.22;51.62;95174.09;4961753;28;20066;-74
2021/10/25 08:52:11;;;;;;;7.70;4.53;;;;;;;6.14;52.10;95179.81;4969046;28;20653;-75
2021/10/25 08:54:36;;;;;;;5.95;4.22;;;;;;;6.12;51.76;95150.22;4966247;28;20092;-73
2021/10/25 08:57:02;;;;;;;5.45;4.30;;;;;;;6.11;51.51;95169.78;4960574;28;20042;-75
2021/10/25 08:59:29;;;;;;;5.97;4.10;;;;;;;6.28;51.25;95175.75;4966008;28;20054;-75
2021/10/25 09:02:06;;;;;;;5.15;3.55;;;;;;;6.40;51.00;95175.59;4962019;28;20390;-74
2021/10/25 09:04:32;;;;;;;5.85;4.82;;;;;;;6.76;50.71;95174.75;4959629;28;20045;-75
2021/10/25 09:06:58;;;;;;;6.60;4.45;;;;;;;6.76;50.27;95176.59;4964436;28;20030;-75
2021/10/25 09:09:28;;;;;;;6.40;3.45;;;;;;;6.49;50.12;95160.84;4964214;28;20050;-74
2021/10/25 09:12:15;;;;;;;4.38;3.45;;;;;;;6.83;50.95;95172.69;4963197;28;20484;-75
2021/10/25 09:14:42;;;;;;;5.18;3.72;;;;;;;6.65;50.16;95153.81;4960465;28;20046;-75
2021/10/25 09:17:09;;;;;;;8.77;4.10;;;;;;;6.82;50.67;95165.78;4965758;28;20125;-75
2021/10/25 09:19:37;;;;;;;6.25;4.00;;;;;;;7.08;50.64;95169.38;4963619;28;20121;-74
2021/10/25 09:22:09;;;;;;;4.32;3.40;;;;;;;7.14;49.63;95141.09;4980451;28;21119;-74
2021/10/25 09:24:35;;;;;;;5.07;3.45;;;;;;;6.96;48.61;95157.38;4964767;28;20124;-74
2021/10/25 09:27:05;;;;;;;4.68;3.35;;;;;;;7.03;48.36;95153.47;4962430;28;21088;-74
2021/10/25 09:29:34;;;;;;;6.70;3.88;;;;;;;6.92;48.51;95165.06;4955977;28;20046;-75
2021/10/25 09:32:14;;;;;;;3.95;3.28;;;;;;;6.83;48.17;95140.94;4964277;28;20301;-75
2021/10/25 09:34:49;;;;;;;6.82;3.10;;;;;;;7.16;49.32;95160.13;4964193;28;20098;-75
2021/10/25 09:37:18;;;;;;;5.60;3.60;;;;;;;7.40;48.25;95153.34;4960352;28;20042;-75
2021/10/25 09:39:51;;;;;;;5.03;3.63;;;;;;;7.08;48.60;95136.81;4964484;28;20073;-76
2021/10/25 09:50:20;;;;;;;6.82;4.32;;;;;;;7.35;48.95;95142.72;4963623;28;20049;-75
2021/10/25 09:52:45;;;;;;;4.65;3.45;;;;;;;7.46;48.16;95139.06;4962322;28;20042;-75
2021/10/25 09:55:19;;;;;;;5.20;3.47;;;;;;;7.16;48.08;95136.31;4963093;28;20045;-75
2021/10/25 10:00:12;;;;;;;2.95;2.50;;;;;;;7.36;46.35;95123.16;4964045;28;20018;-75
2021/10/25 10:02:38;;;;;;;5.30;3.53;;;;;;;7.43;46.60;95121.06;4960122;28;20042;-76
2021/10/25 10:05:06;;;;;;;5.85;2.88;;;;;;;7.32;46.27;95116.78;4961691;28;20405;-75
2021/10/25 10:07:35;;;;;;;5.15;3.70;;;;;;;7.40;45.77;95113.63;4955420;28;20500;-75
2021/10/25 10:10:01;;;;;;;3.53;3.10;;;;;;;7.20;45.56;95108.28;4957761;28;20061;-75
2021/10/25 10:12:27;;;;;;;5.00;3.13;;;;;;;7.17;46.26;95101.66;4954770;28;20035;-75
2021/10/25 10:15:03;;;;;;;4.82;2.95;;;;;;;7.56;48.92;95091.44;4957468;28;20041;-75
2021/10/25 10:17:35;;;;;;;3.75;3.10;;;;;;;7.52;45.37;95094.88;4955349;28;20406;-75
2021/10/25 10:20:06;;;;;;;6.75;3.33;;;;;;;7.45;45.51;95097.75;4966771;28;20077;-75
2021/10/25 10:22:39;;;;;;;5.05;2.90;;;;;;;7.51;46.10;95086.13;4962923;28;20045;-76
2021/10/25 10:25:04;;;;;;;4.57;2.72;;;;;;;7.41;45.59;95083.47;4964366;28;20050;-75
2021/10/25 10:27:30;;;;;;;3.63;2.80;;;;;;;7.38;46.25;95068.13;4962297;28;20031;-74
2021/10/25 10:29:59;;;;;;;3.90;2.67;;;;;;;7.44;45.97;95093.50;4954518;28;20310;-75
2021/10/25 10:32:26;;;;;;;5.43;2.95;;;;;;;7.50;46.16;95081.09;4956073;28;20743;-75
2021/10/25 10:34:53;;;;;;;5.45;3.17;;;;;;;7.60;45.78;95073.97;4958241;28;20125;-76
2021/10/25 10:37:23;;;;;;;4.53;3.03;;;;;;;7.82;45.72;95067.66;4956701;28;20416;-75
2021/10/25 10:40:07;;;;;;;2.17;1.98;;;;;;;7.67;45.09;95034.00;4959565;28;20031;-75
2021/10/25 10:42:35;;;;;;;5.55;3.22;;;;;;;7.95;44.90;95059.16;4961373;28;20034;-75
2021/10/25 10:45:11;;;;;;;4.63;2.58;;;;;;;7.82;44.79;95049.91;4964740;28;20235;-74
2021/10/25 10:50:05;;;;;;;6.60;2.92;;;;;;;7.75;44.87;95030.84;4961877;28;20049;-74
2021/10/25 10:55:05;;;;;;;3.65;2.58;;;;;;;8.06;44.80;95039.56;4962745;28;21276;-74
2021/10/25 10:58:10;;;;;;;4.00;2.75;;;;;;;7.75;44.08;94987.66;4957547;28;20033;-75
2021/10/25 11:00:44;;;;;;;4.38;2.60;;;;;;;8.26;43.67;95036.88;4961694;28;20468;-74
2021/10/25 11:03:25;;;;;;;3.58;2.25;;;;;;;8.11;43.83;95035.06;4960209;28;20226;-74
2021/10/25 11:05:57;;;;;;;5.15;3.25;;;;;;;7.86;43.84;95015.75;4960783;28;20448;-74
2021/10/25 11:08:27;;;;;;;3.42;2.53;;;;;;;7.90;44.20;95001.69;4964811;28;20045;-74
2021/10/25 11:11:07;;;;;;;3.25;2.22;;;;;;;8.28;43.88;95020.69;4962800;28;20121;-74
2021/10/25 11:13:42;;;;;;;2.90;2.53;;;;;;;8.08;43.46;94976.47;4967187;28;20038;-75
2021/10/25 11:16:13;;;;;;;3.85;2.30;;;;;;;8.72;43.85;95029.56;4965267;28;20425;-74
2021/10/25 11:18:42;;;;;;;3.95;2.42;;;;;;;8.66;42.73;95025.34;4967312;28;20432;-74
2021/10/25 11:21:17;;;;;;;5.15;2.40;;;;;;;8.67;42.50;95026.94;4965818;28;20026;-74
2021/10/25 11:24:00;;;;;;;3.28;2.67;;;;;;;8.43;42.45;95016.16;4971603;28;20052;-74
2021/10/25 11:26:40;;;;;;;2.47;2.13;;;;;;;8.43;44.44;95010.03;4967855;28;20050;-74
2021/10/25 11:29:15;;;;;;;4.30;2.38;;;;;;;8.32;41.39;95006.63;4968355;28;20048;-74
2021/10/25 11:31:43;;;;;;;3.25;2.55;;;;;;;8.33;41.82;94994.97;4965833;28;20364;-74
2021/10/25 11:34:13;;;;;;;4.63;2.47;;;;;;;8.51;41.72;95004.22;4961892;28;20066;-74
2021/10/25 11:37:09;;;;;;;3.40;2.25;;;;;;;8.19;41.71;94983.34;4966135;28;20034;-74
2021/10/25 11:39:48;;;;;;;2.13;1.90;;;;;;;8.28;41.99;95008.22;4970783;28;20154;-74
2021/10/25 11:42:17;;;;;;;3.63;1.85;;;;;;;8.33;42.19;95000.28;4965765;28;20274;-74
2021/10/25 11:44:50;;;;;;;4.32;2.40;;;;;;;8.56;42.30;94989.03;4967712;28;20050;-75
2021/10/25 11:47:24;;;;;;;1.83;1.70;;;;;;;8.32;39.52;94993.38;4971372;28;20038;-74
2021/10/25 11:49:52;;;;;;;2.80;1.77;;;;;;;8.09;39.77;94947.06;4968597;28;20217;-75
2021/10/25 11:52:18;;;;;;;4.72;1.63;;;;;;;8.67;39.88;94981.06;4974558;28;20042;-74
2021/10/25 11:54:48;;;;;;;2.40;2.10;;;;;;;8.64;40.49;94989.56;4968642;28;20542;-75
2021/10/25 11:57:14;;;;;;;9.32;3.20;;;;;;;8.52;40.68;94988.00;4968592;28;20038;-74
2021/10/25 11:59:40;;;;;;;2.90;2.00;;;;;;;8.61;40.54;94974.97;4965354;28;20042;-75
2021/10/25 12:02:10;;;;;;;4.68;2.55;;;;;;;8.73;40.76;94966.72;4967198;28;20060;-74
2021/10/25 12:04:45;;;;;;;3.20;2.15;;;;;;;8.83;40.12;94959.50;4967892;28;20039;-77
2021/10/25 12:07:11;;;;;;;;;;;;;;;8.98;39.60;94970.03;4968017;28;20042;-75
2021/10/25 12:09:36;;;;;;;2.65;2.45;;;;;;;8.59;39.48;94956.69;4966198;28;19961;-75
2021/10/25 12:12:25;;;;;;;5.63;3.05;;;;;;;8.72;39.82;94962.47;4966548;28;20051;-75
2021/10/25 12:14:55;;;;;;;2.75;2.22;;;;;;;8.54;39.67;94969.97;4969042;28;20038;-75
2021/10/25 12:17:27;;;;;;;4.45;1.90;;;;;;;8.61;40.05;94953.00;4968639;28;20042;-75
2021/10/25 12:19:53;;;;;;;4.68;2.28;;;;;;;8.51;40.03;94938.69;4972912;28;20050;-75
2021/10/25 12:22:22;;;;;;;6.28;3.10;;;;;;;8.77;40.12;94965.88;4971899;28;20065;-75
2021/10/25 12:24:50;;;;;;;6.22;3.17;;;;;;;8.74;40.95;94955.03;4967293;28;20402;-76
2021/10/25 12:27:17;;;;;;;3.30;1.80;;;;;;;8.54;40.06;94954.06;4968799;28;20959;-75
2021/10/25 12:29:44;;;;;;;4.28;2.78;;;;;;;8.45;40.39;94965.50;4966775;28;20176;-75
2021/10/25 12:32:11;;;;;;;3.75;2.20;;;;;;;8.40;40.48;94965.53;4972454;28;20031;-75
2021/10/25 12:34:54;;;;;;;4.88;2.65;;;;;;;8.50;40.36;94953.03;4963853;28;20444;-75
2021/10/25 12:37:32;;;;;;;5.25;2.35;;;;;;;8.47;40.81;94955.41;4979803;28;20039;-75
2021/10/25 12:39:58;;;;;;;4.32;2.10;;;;;;;8.49;40.91;94946.13;4966078;28;20397;-75
2021/10/25 12:42:27;;;;;;;2.90;2.33;;;;;;;8.66;40.48;94945.00;4969990;28;20078;-75
2021/10/25 12:44:54;;;;;;;5.28;2.28;;;;;;;8.37;40.16;94913.84;4964286;28;20092;-74
2021/10/25 12:47:26;;;;;;;4.38;2.53;;;;;;;8.36;40.00;94920.22;4966255;28;20070;-75
2021/10/25 12:49:54;;;;;;;8.88;3.65;;;;;;;8.55;40.15;94939.75;4960290;28;20038;-75
2021/10/25 12:52:20;;;;;;;4.60;2.17;;;;;;;8.52;40.44;94927.03;4966845;28;20405;-75
2021/10/25 12:54:46;;;;;;;4.05;2.13;;;;;;;8.72;40.03;94927.97;4964409;28;20037;-75
2021/10/25 12:57:29;;;;;;;5.10;2.45;;;;;;;8.85;39.51;94933.47;4965991;28;20043;-75
2021/10/25 12:59:59;;;;;;;3.20;2.00;;;;;;;9.16;40.11;94934.09;4968382;28;20426;-75
2021/10/25 13:02:28;;;;;;;2.33;2.13;;;;;;;9.32;40.07;94940.88;4967484;28;20030;-75
2021/10/25 13:05:05;;;;;;;2.90;2.00;;;;;;;8.70;40.08;94916.88;4967370;28;20045;-74
2021/10/25 13:07:31;;;;;;;2.38;1.77;;;;;;;8.87;40.23;94941.94;4971852;28;20581;-74
2021/10/25 13:09:56;;;;;;;3.17;1.80;;;;;;;8.81;38.59;94919.16;4967592;28;20124;-75
2021/10/25 13:12:21;;;;;;;2.13;1.55;;;;;;;8.86;39.02;94934.25;4966721;28;20030;-75
2021/10/25 13:14:48;;;;;;;3.63;2.22;;;;;;;9.00;38.50;94924.63;4964961;28;20050;-75
2021/10/25 13:17:15;;;;;;;2.20;1.70;;;;;;;9.13;37.63;94924.03;4965748;28;20121;-75
2021/10/25 13:19:40;;;;;;;2.17;1.52;;;;;;;9.27;36.79;94925.00;4968253;28;20675;-74
2021/10/25 13:22:06;;;;;;;2.92;1.70;;;;;;;9.44;36.63;94938.66;4967617;28;20042;-74
2021/10/25 13:24:31;;;;;;;3.70;1.80;;;;;;;9.60;36.73;94917.28;4963981;28;20030;-75
2021/10/25 13:26:57;;;;;;;3.60;1.73;;;;;;;9.75;36.08;94907.31;4966954;28;20038;-75